This is the latest recevied weather packets stored in our database for station/object N7SWJ. If no packets are shown the sender has not sent any weather packets the latest 10 day(s).
| Time | Temp. | Humidity | Pressure | Rain* | Wind** | Luminosity | Snow |
|---|---|---|---|---|---|---|---|
| 1778115825 | 5.56° C | 64% | 1019.7 hPa | 0 mm | - | 26 W/m² | - |
| 1778115523 | 6.11° C | 64% | 1019.6 hPa | 0 mm | - | 28 W/m² | - |
| 1778115219 | 6.11° C | 63% | 1019.8 hPa | 0 mm | - | 30 W/m² | - |
| 1778114916 | 6.11° C | 64% | 1019.6 hPa | 0 mm | - | 33 W/m² | - |
| 1778114613 | 6.11° C | 62% | 1019.8 hPa | 0 mm | - | 34 W/m² | - |
| 1778114310 | 6.67° C | 62% | 1019.8 hPa | 0 mm | - | 36 W/m² | - |
| 1778114006 | 6.67° C | 62% | 1019.7 hPa | 0 mm | - | 38 W/m² | - |
| 1778113700 | 6.11° C | 63% | 1019.9 hPa | 0 mm | - | 43 W/m² | - |
| 1778113397 | 6.67° C | 62% | 1019.8 hPa | 0 mm | - | 51 W/m² | - |
| 1778113090 | 6.67° C | 63% | 1019.8 hPa | 0 mm | - | 46 W/m² | - |
| 1778112787 | 6.67° C | 59% | 1020 hPa | 0 mm | - | 52 W/m² | - |
| 1778112482 | 7.22° C | 56% | 1019.9 hPa | 0 mm | - | 106 W/m² | - |
| 1778112172 | 7.78° C | 57% | 1020 hPa | 0 mm | - | 172 W/m² | - |
| 1778111869 | 7.78° C | 56% | 1020.4 hPa | 0 mm | - | 190 W/m² | - |
| 1778111564 | 7.78° C | 57% | 1020 hPa | 0 mm | - | 201 W/m² | - |
| 1778111262 | 7.78° C | 56% | 1020 hPa | 0 mm | - | 230 W/m² | - |
| 1778110958 | 8.33° C | 56% | 1020 hPa | 0 mm | - | 248 W/m² | - |
| 1778110656 | 8.89° C | 54% | 1020.1 hPa | 0 mm | - | 258 W/m² | - |
| 1778110353 | 8.33° C | 56% | 1020.4 hPa | 0 mm | - | 281 W/m² | - |
| 1778110049 | 7.22° C | 60% | 1020.3 hPa | 0 mm | - | 298 W/m² | - |
| 1778109744 | 8.33° C | 56% | 1020.3 hPa | 0 mm | - | 89 W/m² | - |
| 1778109441 | 8.89° C | 53% | 1020.3 hPa | 0 mm | - | 359 W/m² | - |
| 1778109140 | 8.33° C | 56% | 1020.1 hPa | 0 mm | - | 367 W/m² | - |
| 1778108836 | 8.33° C | 55% | 1020.1 hPa | 0 mm | - | 401 W/m² | - |
| 1778108533 | 8.33° C | 56% | 1020.1 hPa | 0 mm | - | 114 W/m² | - |
* Rain latest hour (hover to see other rain measurements)
** Current wind speed in m/s (hover to see current wind gust speed)